Time;durP1;ratioP1;P1;durP2;ratioP2;P2;SDS_P1;SDS_P2;PMS_P1;PMS_P2;Temp;Humidity;BMP_temperature;BMP_pressure;BME280_temperature;BME280_humidity;BME280_pressure;Samples;Min_cycle;Max_cycle;Signal;HPM_P1;HPM_P2
2023/12/08 00:00:18;;;;;;;279.45;266.48;;;0.60;99.90;;;;;;5012307;28;20050;-73
2023/12/08 00:02:43;;;;;;;263.30;250.75;;;0.60;99.90;;;;;;5009316;28;20044;-73
2023/12/08 00:05:09;;;;;;;349.50;332.03;;;0.60;99.90;;;;;;5011871;28;20049;-73
2023/12/08 00:07:35;;;;;;;311.17;296.20;;;0.60;99.90;;;;;;5007236;28;20042;-73
2023/12/08 00:10:02;;;;;;;343.98;327.70;;;0.60;99.90;;;;;;5010376;28;20797;-73
2023/12/08 00:12:28;;;;;;;298.42;283.88;;;0.60;99.90;;;;;;5012668;28;20075;-73
2023/12/08 00:14:54;;;;;;;357.87;340.80;;;0.60;99.90;;;;;;5012749;28;20073;-73
2023/12/08 00:17:19;;;;;;;392.20;372.10;;;0.50;99.90;;;;;;5011632;28;20041;-73
2023/12/08 00:19:45;;;;;;;307.93;293.50;;;0.50;99.90;;;;;;4989041;28;20069;-73
2023/12/08 00:22:11;;;;;;;312.07;297.77;;;0.50;99.90;;;;;;5008356;28;20073;-73
2023/12/08 00:24:37;;;;;;;226.35;215.75;;;0.50;99.90;;;;;;5012681;28;20044;-73
2023/12/08 00:27:03;;;;;;;257.37;245.13;;;0.50;99.90;;;;;;5005975;28;20049;-73
2023/12/08 00:29:29;;;;;;;258.70;245.82;;;0.50;99.90;;;;;;5003931;28;20285;-73
2023/12/08 00:31:54;;;;;;;265.10;252.33;;;0.50;99.90;;;;;;5010563;28;20085;-73
2023/12/08 00:34:20;;;;;;;281.90;268.70;;;0.50;99.90;;;;;;5005631;28;20042;-73
2023/12/08 00:36:46;;;;;;;281.33;267.80;;;0.50;99.90;;;;;;5012339;28;20398;-73
2023/12/08 00:39:12;;;;;;;291.40;277.43;;;0.50;99.90;;;;;;5012118;28;20052;-73
2023/12/08 00:41:37;;;;;;;314.13;299.77;;;0.50;99.90;;;;;;4994956;28;20042;-73
2023/12/08 00:44:03;;;;;;;319.87;304.40;;;0.50;99.90;;;;;;4989227;28;20046;-73
2023/12/08 00:46:30;;;;;;;387.75;368.88;;;0.50;99.90;;;;;;5012201;28;20506;-73
2023/12/08 00:48:56;;;;;;;317.33;301.85;;;0.50;99.90;;;;;;5012268;28;20026;-73
2023/12/08 00:51:22;;;;;;;305.10;290.43;;;0.50;99.90;;;;;;5011554;28;20064;-74
2023/12/08 00:53:47;;;;;;;349.63;332.93;;;0.50;99.90;;;;;;4992935;28;20038;-73
2023/12/08 00:56:13;;;;;;;364.43;347.27;;;0.50;99.90;;;;;;5008863;28;20128;-73
2023/12/08 00:58:39;;;;;;;284.47;271.17;;;0.50;99.90;;;;;;4996480;28;20038;-73
2023/12/08 01:01:05;;;;;;;300.30;285.80;;;0.50;99.90;;;;;;4992962;28;20116;-73
2023/12/08 01:03:31;;;;;;;310.67;296.10;;;0.50;99.90;;;;;;4995116;28;20045;-73
2023/12/08 01:05:57;;;;;;;278.73;265.63;;;0.50;99.90;;;;;;5010102;28;20046;-73
2023/12/08 01:08:22;;;;;;;305.80;291.52;;;0.50;99.90;;;;;;4986594;28;20092;-73
2023/12/08 01:10:48;;;;;;;291.17;277.63;;;0.50;99.90;;;;;;4995612;28;20129;-73
2023/12/08 01:13:14;;;;;;;300.07;286.13;;;0.50;99.90;;;;;;5010220;28;20045;-73
2023/12/08 01:15:39;;;;;;;300.60;286.77;;;0.50;99.90;;;;;;5012452;28;20042;-73
2023/12/08 01:18:05;;;;;;;283.57;270.13;;;0.50;99.90;;;;;;4995716;28;20483;-73
2023/12/08 01:20:31;;;;;;;349.33;332.30;;;0.50;99.90;;;;;;5010025;28;20050;-73
2023/12/08 01:22:57;;;;;;;299.40;285.63;;;0.50;99.90;;;;;;5010399;28;20380;-73
2023/12/08 01:25:22;;;;;;;291.50;278.13;;;0.40;99.90;;;;;;5010813;28;20041;-73
2023/12/08 01:27:48;;;;;;;298.57;284.40;;;0.40;99.90;;;;;;5010897;28;20054;-73
2023/12/08 01:30:14;;;;;;;334.60;319.03;;;0.50;99.90;;;;;;4993347;28;20034;-73
2023/12/08 01:32:39;;;;;;;282.47;269.00;;;0.40;99.90;;;;;;4996912;28;20042;-73
2023/12/08 01:35:05;;;;;;;290.17;276.07;;;0.40;99.90;;;;;;5007942;28;20041;-72
2023/12/08 01:37:31;;;;;;;268.67;255.80;;;0.40;99.90;;;;;;4988849;28;20045;-73
2023/12/08 01:39:57;;;;;;;288.60;275.30;;;0.40;99.90;;;;;;5010260;28;20054;-73
2023/12/08 01:42:22;;;;;;;238.33;226.63;;;0.40;99.90;;;;;;4994722;28;20065;-73
2023/12/08 01:44:48;;;;;;;374.10;355.70;;;0.40;99.90;;;;;;5008414;28;20052;-72
2023/12/08 01:47:14;;;;;;;342.00;325.73;;;0.40;99.90;;;;;;4994386;28;20069;-73
2023/12/08 01:49:40;;;;;;;338.40;322.30;;;0.40;99.90;;;;;;5010300;28;20048;-73
2023/12/08 01:52:07;;;;;;;326.88;311.58;;;0.40;99.90;;;;;;5010424;28;20037;-73
2023/12/08 01:54:34;;;;;;;464.42;441.23;;;0.40;99.90;;;;;;5007732;28;20121;-73
2023/12/08 01:57:01;;;;;;;348.00;331.80;;;0.40;99.90;;;;;;5009466;28;20042;-73
2023/12/08 01:59:27;;;;;;;311.65;297.23;;;0.40;99.90;;;;;;5008046;28;20537;-73
2023/12/08 02:01:54;;;;;;;361.63;344.67;;;0.40;99.90;;;;;;5007800;28;20107;-73
2023/12/08 02:04:20;;;;;;;310.17;295.60;;;0.40;99.90;;;;;;5006051;28;20186;-73
2023/12/08 02:06:45;;;;;;;392.55;372.58;;;0.40;99.90;;;;;;5008019;28;20042;-73
2023/12/08 02:09:12;;;;;;;364.57;347.13;;;0.40;99.90;;;;;;5009736;28;20104;-73
2023/12/08 02:11:38;;;;;;;398.77;378.40;;;0.40;99.90;;;;;;5009391;28;20048;-73
2023/12/08 02:14:04;;;;;;;338.17;322.25;;;0.40;99.90;;;;;;5012926;28;20033;-72
2023/12/08 02:16:40;;;;;;;349.77;333.50;;;0.40;99.90;;;;;;5009147;28;20048;-73
2023/12/08 02:19:07;;;;;;;392.10;373.10;;;0.40;99.90;;;;;;5020565;28;20070;-73
2023/12/08 02:21:34;;;;;;;388.23;369.23;;;0.40;99.90;;;;;;5006261;28;20038;-73
2023/12/08 02:24:00;;;;;;;334.45;318.70;;;0.40;99.90;;;;;;4992582;28;20091;-73
2023/12/08 02:26:26;;;;;;;338.83;322.57;;;0.40;99.90;;;;;;5011306;28;20046;-73
2023/12/08 02:28:52;;;;;;;335.73;320.33;;;0.40;99.90;;;;;;5008839;28;20046;-73
2023/12/08 02:31:25;;;;;;;408.15;388.48;;;0.40;99.90;;;;;;5008878;28;20041;-73
2023/12/08 02:33:53;;;;;;;321.90;306.70;;;0.40;99.90;;;;;;5004262;28;20038;-73
2023/12/08 02:36:20;;;;;;;359.77;343.10;;;0.40;99.90;;;;;;5007761;28;20521;-73
2023/12/08 02:38:47;;;;;;;316.40;301.63;;;0.40;99.90;;;;;;4989268;28;20387;-73
2023/12/08 02:41:13;;;;;;;358.83;342.25;;;0.40;99.90;;;;;;5008488;28;20048;-72
2023/12/08 02:43:39;;;;;;;375.73;357.85;;;0.40;99.90;;;;;;5003781;28;20091;-73
2023/12/08 02:46:06;;;;;;;357.63;340.53;;;0.40;99.90;;;;;;4992726;28;20037;-73
2023/12/08 02:48:32;;;;;;;392.95;373.90;;;0.40;99.90;;;;;;5009236;28;20153;-73
2023/12/08 02:50:58;;;;;;;385.67;367.07;;;0.40;99.90;;;;;;5009366;28;20085;-73
2023/12/08 02:53:23;;;;;;;352.77;335.67;;;0.40;99.90;;;;;;4994565;28;20354;-73
2023/12/08 02:55:49;;;;;;;449.17;427.00;;;0.40;99.90;;;;;;4990835;28;20052;-73
2023/12/08 02:58:15;;;;;;;367.43;349.67;;;0.40;99.90;;;;;;4993723;28;20056;-73
2023/12/08 03:00:40;;;;;;;423.53;402.30;;;0.40;99.90;;;;;;4993321;28;20104;-73
2023/12/08 03:03:06;;;;;;;440.20;418.13;;;0.40;99.90;;;;;;5009899;28;20088;-73
2023/12/08 03:05:32;;;;;;;353.23;336.20;;;0.50;99.90;;;;;;4992859;28;20048;-73
2023/12/08 03:07:57;;;;;;;346.60;330.23;;;0.40;99.90;;;;;;5010188;28;20038;-73
2023/12/08 03:10:23;;;;;;;393.03;374.60;;;0.40;99.90;;;;;;5010356;28;20061;-73
2023/12/08 03:12:49;;;;;;;354.47;338.03;;;0.40;99.90;;;;;;5011949;28;20056;-73
2023/12/08 03:15:15;;;;;;;372.00;354.13;;;0.40;99.90;;;;;;5011425;28;20034;-73
2023/12/08 03:17:40;;;;;;;399.17;379.97;;;0.40;99.90;;;;;;4994090;28;20077;-73
2023/12/08 03:20:06;;;;;;;435.20;413.73;;;0.40;99.90;;;;;;4979554;28;20088;-73
2023/12/08 03:22:32;;;;;;;403.67;384.33;;;0.40;99.90;;;;;;5009325;28;20053;-73
2023/12/08 03:24:58;;;;;;;432.23;410.50;;;0.40;99.90;;;;;;4986137;28;20417;-73
2023/12/08 03:27:23;;;;;;;398.80;379.43;;;0.50;99.90;;;;;;5008977;28;20128;-73
2023/12/08 03:29:49;;;;;;;366.87;349.70;;;0.40;99.90;;;;;;5010252;28;20046;-74
2023/12/08 03:32:15;;;;;;;314.07;299.03;;;0.40;99.90;;;;;;5009082;28;20486;-73
2023/12/08 03:34:40;;;;;;;387.90;368.43;;;0.50;99.90;;;;;;5009353;28;20068;-73
2023/12/08 03:37:06;;;;;;;358.63;341.53;;;0.40;99.90;;;;;;4992927;28;20089;-73
2023/12/08 03:39:32;;;;;;;381.93;363.57;;;0.50;99.90;;;;;;4993443;28;20121;-72
2023/12/08 03:41:57;;;;;;;392.37;373.00;;;0.40;99.90;;;;;;5012357;28;20061;-73
2023/12/08 03:44:23;;;;;;;337.07;321.00;;;0.40;99.90;;;;;;4990710;28;20073;-73
2023/12/08 03:46:49;;;;;;;386.00;367.03;;;0.40;99.90;;;;;;5010925;28;20045;-72
2023/12/08 03:49:14;;;;;;;444.60;421.40;;;0.40;99.90;;;;;;5009959;28;20398;-73
2023/12/08 03:51:40;;;;;;;403.87;384.57;;;0.40;99.90;;;;;;4994296;28;20041;-73
2023/12/08 03:54:06;;;;;;;369.63;351.50;;;0.40;99.90;;;;;;5008420;28;20093;-73
2023/12/08 03:56:31;;;;;;;343.00;326.23;;;0.40;99.90;;;;;;5009489;28;20505;-73
2023/12/08 03:58:57;;;;;;;373.13;354.83;;;0.30;99.90;;;;;;5012398;28;20034;-73
2023/12/08 04:01:23;;;;;;;353.53;336.53;;;0.30;99.90;;;;;;5013486;28;20494;-73
2023/12/08 04:03:48;;;;;;;421.23;398.60;;;0.30;99.90;;;;;;5013699;28;20134;-73
2023/12/08 04:06:14;;;;;;;372.60;354.23;;;0.30;99.90;;;;;;4999582;28;20452;-73
2023/12/08 04:08:40;;;;;;;453.87;431.17;;;0.30;99.90;;;;;;5013063;28;20034;-73
2023/12/08 04:11:06;;;;;;;398.73;379.20;;;0.30;99.90;;;;;;4996400;28;20494;-73
2023/12/08 04:13:32;;;;;;;405.70;385.50;;;0.20;99.90;;;;;;5019086;28;20038;-73
2023/12/08 04:15:57;;;;;;;372.70;353.67;;;0.20;99.90;;;;;;4992015;28;20379;-73
2023/12/08 04:18:23;;;;;;;411.17;390.37;;;0.20;99.90;;;;;;5010687;28;20058;-74
2023/12/08 04:20:49;;;;;;;418.33;397.27;;;0.20;99.90;;;;;;5014621;28;20048;-73
2023/12/08 04:23:14;;;;;;;414.83;393.17;;;0.20;99.90;;;;;;5016736;28;20609;-74
2023/12/08 04:25:40;;;;;;;371.17;352.60;;;0.20;99.90;;;;;;4995192;28;20076;-73
2023/12/08 04:28:06;;;;;;;416.67;396.03;;;0.10;99.90;;;;;;4996129;28;20107;-73
2023/12/08 04:30:31;;;;;;;417.83;396.73;;;0.10;99.90;;;;;;4995506;28;20048;-73
2023/12/08 04:32:57;;;;;;;384.37;365.07;;;0.10;99.90;;;;;;5012200;28;20457;-74
2023/12/08 04:35:24;;;;;;;360.50;342.33;;;0.10;99.90;;;;;;5014496;28;20045;-73
2023/12/08 04:37:53;;;;;;;370.83;352.27;;;0.00;99.90;;;;;;4997853;28;20049;-73
2023/12/08 04:40:18;;;;;;;398.15;378.67;;;0.00;99.90;;;;;;4995677;28;20077;-74
2023/12/08 04:42:44;;;;;;;399.10;379.07;;;0.00;99.90;;;;;;5007483;28;20132;-73
2023/12/08 04:45:13;;;;;;;367.40;349.03;;;0.00;99.90;;;;;;5010492;28;20042;-73
2023/12/08 04:47:39;;;;;;;398.00;377.52;;;0.00;99.90;;;;;;5011350;28;20149;-74
2023/12/08 04:50:05;;;;;;;396.27;376.00;;;0.00;99.90;;;;;;5008545;28;20117;-74
2023/12/08 04:52:32;;;;;;;398.35;377.92;;;0.00;99.90;;;;;;4995378;28;20405;-73
2023/12/08 04:54:58;;;;;;;357.25;339.50;;;0.00;99.90;;;;;;4990585;28;20124;-73
2023/12/08 04:57:24;;;;;;;346.48;329.23;;;0.00;99.90;;;;;;5011441;28;20046;-73
2023/12/08 04:59:50;;;;;;;336.90;319.77;;;0.00;99.90;;;;;;5011747;28;20189;-73
2023/12/08 05:02:15;;;;;;;308.30;292.23;;;0.00;99.90;;;;;;5011819;28;20454;-74
2023/12/08 05:04:42;;;;;;;450.03;425.47;;;0.00;99.90;;;;;;4995736;28;20050;-74
2023/12/08 05:07:07;;;;;;;401.00;380.52;;;0.00;99.90;;;;;;4998471;28;20034;-74
2023/12/08 05:09:33;;;;;;;434.50;412.50;;;0.00;99.90;;;;;;4994005;28;20136;-74
2023/12/08 05:11:59;;;;;;;428.93;406.40;;;0.00;99.90;;;;;;5012070;28;20389;-74
2023/12/08 05:14:24;;;;;;;422.30;400.40;;;0.00;99.90;;;;;;5011868;28;20072;-74
2023/12/08 05:16:50;;;;;;;431.97;409.43;;;0.00;99.90;;;;;;5011612;28;20084;-74
2023/12/08 05:19:16;;;;;;;412.60;391.23;;;0.00;99.90;;;;;;5009893;28;20038;-74
2023/12/08 05:21:42;;;;;;;381.27;361.75;;;0.00;99.90;;;;;;5010434;28;20052;-74
2023/12/08 05:24:08;;;;;;;420.13;397.53;;;0.00;99.90;;;;;;5011598;28;20037;-74
2023/12/08 05:26:34;;;;;;;351.13;332.40;;;-0.10;99.90;;;;;;4994663;28;20054;-74
2023/12/08 05:28:59;;;;;;;411.60;390.17;;;-0.10;99.90;;;;;;4992405;28;20041;-74
2023/12/08 05:31:25;;;;;;;331.73;314.47;;;-0.10;99.90;;;;;;5010805;28;20038;-74
2023/12/08 05:33:51;;;;;;;368.77;348.77;;;-0.10;99.90;;;;;;5008088;28;20045;-74
2023/12/08 05:36:17;;;;;;;390.10;369.70;;;-0.10;99.90;;;;;;5011442;28;20045;-74
2023/12/08 05:38:43;;;;;;;358.20;339.33;;;-0.10;99.90;;;;;;5010231;28;20209;-74
2023/12/08 05:41:09;;;;;;;479.73;453.10;;;-0.10;99.90;;;;;;5010634;28;20466;-74
2023/12/08 05:43:34;;;;;;;417.53;394.77;;;-0.10;99.90;;;;;;4985003;28;20076;-74
2023/12/08 05:46:00;;;;;;;343.40;324.90;;;-0.10;99.90;;;;;;4995455;28;20092;-74
2023/12/08 05:48:25;;;;;;;352.33;333.43;;;-0.10;99.90;;;;;;5011744;28;20034;-74
2023/12/08 05:50:51;;;;;;;464.13;438.63;;;-0.20;99.90;;;;;;4993364;28;20171;-74
2023/12/08 05:53:17;;;;;;;376.13;355.47;;;-0.20;99.90;;;;;;5009495;28;20030;-74
2023/12/08 05:55:42;;;;;;;409.47;388.30;;;-0.20;99.90;;;;;;5003599;28;20128;-74
2023/12/08 05:58:08;;;;;;;395.50;374.70;;;-0.20;99.90;;;;;;4990114;28;20046;-73
2023/12/08 06:00:34;;;;;;;420.87;397.77;;;-0.20;99.90;;;;;;4991561;28;20069;-74
2023/12/08 06:03:00;;;;;;;381.87;360.47;;;-0.20;99.90;;;;;;5011364;28;20076;-74
2023/12/08 06:05:26;;;;;;;390.73;369.03;;;-0.20;99.90;;;;;;4994765;28;20042;-74
2023/12/08 06:07:51;;;;;;;380.48;359.55;;;-0.20;99.90;;;;;;4994220;28;20034;-74
2023/12/08 06:10:17;;;;;;;400.60;378.87;;;-0.20;99.90;;;;;;5011147;28;20044;-74
2023/12/08 06:12:43;;;;;;;396.40;375.13;;;-0.20;99.90;;;;;;5010217;28;20050;-74
2023/12/08 06:15:10;;;;;;;388.87;367.03;;;-0.20;99.90;;;;;;4986926;28;20044;-74
2023/12/08 06:17:37;;;;;;;389.50;365.92;;;-0.20;99.90;;;;;;5006016;28;20091;-73
2023/12/08 06:20:09;;;;;;;414.40;391.08;;;-0.20;99.90;;;;;;5010226;28;20096;-73
2023/12/08 06:22:35;;;;;;;387.60;366.20;;;-0.20;99.90;;;;;;5029133;28;20150;-74
2023/12/08 06:25:01;;;;;;;265.55;250.55;;;-0.20;99.90;;;;;;5009966;28;20395;-74
2023/12/08 06:27:26;;;;;;;277.80;261.93;;;-0.20;99.90;;;;;;5007656;28;20052;-74
2023/12/08 06:29:52;;;;;;;496.97;456.37;;;-0.20;99.90;;;;;;5010408;28;20038;-74
2023/12/08 06:32:20;;;;;;;433.47;409.47;;;-0.20;99.90;;;;;;5007389;28;20038;-74
2023/12/08 06:34:46;;;;;;;489.75;462.90;;;-0.20;99.90;;;;;;5007364;28;20145;-74
2023/12/08 06:37:13;;;;;;;452.13;427.37;;;-0.20;99.90;;;;;;5005045;28;20042;-74
2023/12/08 06:39:42;;;;;;;371.75;351.83;;;-0.20;99.90;;;;;;5010275;28;20049;-74
2023/12/08 06:42:08;;;;;;;404.40;382.08;;;-0.20;99.90;;;;;;5000695;28;20503;-74
2023/12/08 06:44:33;;;;;;;350.03;331.73;;;-0.20;99.90;;;;;;5008302;28;20045;-73
2023/12/08 06:47:00;;;;;;;316.10;297.83;;;-0.20;99.90;;;;;;4985474;28;20077;-74
2023/12/08 06:49:26;;;;;;;352.50;333.30;;;-0.20;99.90;;;;;;5009623;28;20038;-74
2023/12/08 06:51:52;;;;;;;260.53;245.70;;;-0.20;99.90;;;;;;4993692;28;20064;-74
2023/12/08 06:54:18;;;;;;;286.20;270.10;;;-0.10;99.90;;;;;;5010532;28;20037;-75
2023/12/08 06:56:44;;;;;;;229.75;216.38;;;-0.10;99.90;;;;;;5008256;28;20087;-74
2023/12/08 06:59:10;;;;;;;185.80;174.50;;;-0.10;99.90;;;;;;5008842;28;20468;-73
2023/12/08 07:01:36;;;;;;;264.77;249.80;;;-0.10;99.90;;;;;;4986107;28;20084;-74
2023/12/08 07:04:05;;;;;;;359.30;338.87;;;-0.10;99.90;;;;;;5008537;28;20320;-74
2023/12/08 07:06:31;;;;;;;331.52;314.05;;;-0.10;99.90;;;;;;5004980;28;20043;-74
2023/12/08 07:08:56;;;;;;;300.43;284.80;;;-0.10;99.90;;;;;;4989385;28;20041;-74
2023/12/08 07:11:22;;;;;;;293.20;277.70;;;-0.10;99.90;;;;;;5009885;28;20034;-74
2023/12/08 07:13:48;;;;;;;321.90;304.60;;;-0.10;99.90;;;;;;5010402;28;20049;-74
2023/12/08 07:16:14;;;;;;;342.33;323.63;;;-0.10;99.90;;;;;;5009982;28;20303;-74
2023/12/08 07:18:40;;;;;;;270.63;256.23;;;-0.10;99.90;;;;;;5012274;28;20033;-74
2023/12/08 07:21:07;;;;;;;294.08;278.20;;;-0.10;99.90;;;;;;4993334;28;20291;-74
2023/12/08 07:23:33;;;;;;;352.73;333.92;;;-0.10;99.90;;;;;;4994453;28;20046;-74
2023/12/08 07:25:59;;;;;;;334.98;317.50;;;-0.10;99.90;;;;;;5002853;28;20169;-74
2023/12/08 07:28:25;;;;;;;346.83;328.58;;;0.00;99.90;;;;;;5009837;28;20058;-74
2023/12/08 07:30:51;;;;;;;292.13;275.90;;;-0.10;99.90;;;;;;5009328;28;20497;-74
2023/12/08 07:33:16;;;;;;;309.43;293.27;;;0.00;99.90;;;;;;5011968;28;20087;-74
2023/12/08 07:35:42;;;;;;;292.17;275.23;;;0.00;99.90;;;;;;5013224;28;20429;-74
2023/12/08 07:38:08;;;;;;;332.97;315.03;;;0.00;99.90;;;;;;4996738;28;20414;-74
2023/12/08 07:40:34;;;;;;;322.30;304.87;;;0.00;99.90;;;;;;5012240;28;20049;-74
2023/12/08 07:42:59;;;;;;;337.40;318.77;;;0.00;99.90;;;;;;5012960;28;20397;-74
2023/12/08 07:45:25;;;;;;;347.90;328.97;;;0.00;99.90;;;;;;5012914;28;20048;-74
2023/12/08 07:47:51;;;;;;;339.27;321.33;;;0.00;99.90;;;;;;4996817;28;20065;-74
2023/12/08 07:50:17;;;;;;;372.57;352.00;;;0.00;99.90;;;;;;4996677;28;20030;-74
2023/12/08 07:52:43;;;;;;;398.63;377.37;;;0.00;99.90;;;;;;5012365;28;20038;-74
2023/12/08 07:55:11;;;;;;;323.73;306.03;;;0.00;99.90;;;;;;5008697;28;20120;-74
2023/12/08 07:57:38;;;;;;;338.48;319.73;;;0.00;99.90;;;;;;4995732;28;20281;-74
2023/12/08 08:00:06;;;;;;;370.70;350.95;;;0.00;99.90;;;;;;5008968;28;20132;-74
2023/12/08 08:02:32;;;;;;;348.25;329.40;;;0.00;99.90;;;;;;5012086;28;20045;-74
2023/12/08 08:04:58;;;;;;;410.98;388.33;;;0.00;99.90;;;;;;5012176;28;20045;-74
2023/12/08 08:07:24;;;;;;;376.15;355.33;;;0.00;99.90;;;;;;5010949;28;20084;-74
2023/12/08 08:09:51;;;;;;;403.50;381.25;;;-0.10;99.90;;;;;;5011624;28;20492;-74
2023/12/08 08:12:17;;;;;;;400.25;378.42;;;-0.10;99.90;;;;;;5010774;28;20033;-74
2023/12/08 08:14:43;;;;;;;357.58;338.42;;;-0.10;99.90;;;;;;5011963;28;20034;-74
2023/12/08 08:17:08;;;;;;;378.40;358.37;;;-0.10;99.90;;;;;;5008825;28;20049;-74
2023/12/08 08:19:34;;;;;;;376.50;355.77;;;0.00;99.90;;;;;;4995910;28;20052;-74
2023/12/08 08:22:00;;;;;;;370.80;349.43;;;0.00;99.90;;;;;;5006751;28;20056;-74
2023/12/08 08:24:26;;;;;;;385.83;365.07;;;0.00;99.90;;;;;;5012223;28;20050;-74
2023/12/08 08:26:52;;;;;;;394.67;373.05;;;0.00;99.90;;;;;;5013187;28;20096;-74
2023/12/08 08:29:18;;;;;;;435.77;411.73;;;0.00;99.90;;;;;;4990227;28;20038;-73
2023/12/08 08:31:44;;;;;;;402.53;380.67;;;0.00;99.90;;;;;;5008291;28;20103;-74
2023/12/08 08:34:09;;;;;;;407.40;384.63;;;0.00;99.90;;;;;;5008000;28;20041;-74
2023/12/08 08:36:35;;;;;;;421.60;398.03;;;0.00;99.90;;;;;;5010247;28;20069;-74
2023/12/08 08:39:03;;;;;;;433.93;409.27;;;0.10;99.90;;;;;;5009646;28;20042;-74
2023/12/08 08:41:29;;;;;;;430.35;405.77;;;0.10;99.90;;;;;;5012234;28;20059;-74
2023/12/08 08:43:55;;;;;;;393.60;371.35;;;0.10;99.90;;;;;;4991204;28;20125;-74
2023/12/08 08:46:21;;;;;;;370.23;349.40;;;0.10;99.90;;;;;;5004750;28;20137;-74
2023/12/08 08:48:46;;;;;;;382.57;360.60;;;0.10;99.90;;;;;;5012032;28;20132;-74
2023/12/08 08:51:14;;;;;;;369.73;348.40;;;0.10;99.90;;;;;;5012063;28;20303;-74
2023/12/08 08:53:40;;;;;;;325.33;306.48;;;0.10;99.90;;;;;;4995146;28;20033;-74
2023/12/08 08:56:06;;;;;;;396.03;373.90;;;0.10;99.90;;;;;;5007672;28;20045;-74
2023/12/08 08:58:34;;;;;;;521.42;491.40;;;0.00;99.90;;;;;;4991557;28;20508;-74
2023/12/08 09:01:00;;;;;;;362.05;342.60;;;0.00;99.90;;;;;;5016652;28;20654;-74
2023/12/08 09:03:25;;;;;;;385.58;364.50;;;0.10;99.90;;;;;;5005544;28;20053;-74
2023/12/08 09:05:51;;;;;;;387.17;366.47;;;0.10;99.90;;;;;;5007016;28;20682;-74
2023/12/08 09:08:17;;;;;;;370.80;349.90;;;0.10;99.90;;;;;;4992562;28;20034;-74
2023/12/08 09:10:45;;;;;;;313.13;295.23;;;0.10;99.90;;;;;;5009012;28;20044;-74
2023/12/08 09:13:12;;;;;;;310.23;293.00;;;0.10;99.90;;;;;;4991927;28;20036;-74
2023/12/08 09:15:38;;;;;;;293.75;277.20;;;0.10;99.90;;;;;;5025075;28;20045;-74
2023/12/08 09:18:05;;;;;;;353.10;333.25;;;0.10;99.90;;;;;;5009510;28;20437;-74
2023/12/08 09:20:31;;;;;;;333.73;315.02;;;0.20;99.90;;;;;;5005253;28;20124;-74
2023/12/08 09:22:57;;;;;;;417.87;395.60;;;0.20;99.90;;;;;;5010141;28;20121;-73
2023/12/08 09:25:23;;;;;;;358.03;338.37;;;0.20;99.90;;;;;;5010935;28;20421;-74
2023/12/08 09:27:49;;;;;;;358.00;338.75;;;0.30;99.90;;;;;;5010610;28;20137;-73
2023/12/08 09:30:14;;;;;;;329.93;311.23;;;0.30;99.90;;;;;;5010116;28;20473;-73
2023/12/08 09:32:40;;;;;;;401.90;380.03;;;0.30;99.90;;;;;;5011130;28;20113;-74
2023/12/08 09:35:06;;;;;;;410.40;387.77;;;0.40;99.90;;;;;;5010609;28;20091;-74
2023/12/08 09:37:32;;;;;;;388.83;366.50;;;0.40;99.90;;;;;;4994733;28;20077;-73
2023/12/08 09:39:57;;;;;;;475.60;448.83;;;0.40;99.90;;;;;;5010565;28;20056;-74
2023/12/08 09:42:41;;;;;;;385.87;364.77;;;0.50;99.90;;;;;;5012401;28;20077;-74
2023/12/08 09:45:12;;;;;;;403.05;380.77;;;0.50;99.90;;;;;;4986065;28;20045;-73
2023/12/08 09:47:41;;;;;;;413.65;390.23;;;0.50;99.90;;;;;;5010387;28;20038;-73
2023/12/08 09:50:09;;;;;;;403.35;381.20;;;0.60;99.90;;;;;;4993844;28;20091;-74
2023/12/08 09:52:36;;;;;;;466.30;440.80;;;0.50;99.90;;;;;;5010605;28;20100;-74
2023/12/08 09:55:03;;;;;;;471.20;445.35;;;0.60;99.90;;;;;;5009990;28;20034;-74
2023/12/08 09:57:32;;;;;;;491.77;463.65;;;0.60;99.90;;;;;;5010694;28;20517;-74
2023/12/08 10:00:01;;;;;;;477.58;451.08;;;0.60;99.90;;;;;;4993081;28;20069;-74
2023/12/08 10:02:28;;;;;;;470.10;444.40;;;0.60;99.90;;;;;;5009231;28;20046;-74
2023/12/08 10:04:53;;;;;;;412.35;390.02;;;0.60;99.90;;;;;;4994331;28;20046;-74
2023/12/08 10:07:20;;;;;;;440.40;416.10;;;0.60;99.90;;;;;;5010451;28;20049;-74
2023/12/08 10:09:46;;;;;;;433.33;409.35;;;0.70;99.90;;;;;;5010247;28;20044;-74
2023/12/08 10:12:12;;;;;;;382.03;361.43;;;0.70;99.90;;;;;;5008990;28;20045;-74
2023/12/08 10:14:51;;;;;;;445.60;420.93;;;0.80;99.90;;;;;;5009939;28;20049;-74
2023/12/08 10:17:17;;;;;;;364.70;344.33;;;0.80;99.90;;;;;;5017202;28;20050;-74
2023/12/08 10:19:42;;;;;;;460.07;434.40;;;0.80;99.90;;;;;;5005224;28;20398;-74
2023/12/08 10:22:08;;;;;;;455.27;429.80;;;0.80;99.90;;;;;;4991995;28;20092;-74
2023/12/08 10:24:34;;;;;;;466.77;441.00;;;0.80;99.90;;;;;;5009449;28;20048;-73
2023/12/08 10:27:00;;;;;;;476.73;449.80;;;0.80;99.90;;;;;;5009868;28;20074;-73
2023/12/08 10:29:30;;;;;;;545.42;514.10;;;0.90;99.90;;;;;;5008800;28;20038;-73
2023/12/08 10:31:57;;;;;;;490.20;462.45;;;0.80;99.90;;;;;;5008990;28;20091;-73
2023/12/08 10:34:24;;;;;;;489.65;461.30;;;0.90;99.90;;;;;;4992768;28;20038;-74
2023/12/08 10:36:51;;;;;;;522.20;491.42;;;0.90;99.90;;;;;;5010591;28;20417;-74
2023/12/08 10:39:17;;;;;;;560.10;527.90;;;0.90;99.90;;;;;;5010957;28;20056;-74
2023/12/08 10:41:43;;;;;;;454.30;429.20;;;1.00;99.90;;;;;;5008352;28;20095;-73
2023/12/08 10:44:11;;;;;;;510.60;480.47;;;1.00;99.90;;;;;;5008037;28;20042;-73
2023/12/08 10:46:37;;;;;;;439.73;413.65;;;1.00;99.90;;;;;;5009451;28;20305;-73
2023/12/08 10:49:04;;;;;;;451.40;424.33;;;1.10;99.90;;;;;;5010465;28;20042;-73
2023/12/08 10:51:30;;;;;;;495.02;466.08;;;1.10;99.90;;;;;;5009782;28;20436;-73
2023/12/08 10:53:57;;;;;;;512.00;481.50;;;1.10;99.90;;;;;;5009526;28;20129;-73
2023/12/08 10:56:23;;;;;;;545.35;513.40;;;1.10;99.90;;;;;;4993965;28;20042;-73
2023/12/08 10:58:57;;;;;;;564.90;531.60;;;1.20;99.90;;;;;;5010344;28;20076;-73
2023/12/08 11:01:25;;;;;;;535.65;504.13;;;1.20;99.90;;;;;;5009857;28;20121;-74
2023/12/08 11:03:57;;;;;;;577.30;543.20;;;1.20;99.90;;;;;;4992563;28;20545;-74
2023/12/08 11:06:28;;;;;;;492.50;463.65;;;1.20;99.90;;;;;;5008729;28;20192;-74
2023/12/08 11:08:59;;;;;;;560.88;527.38;;;1.20;99.90;;;;;;5013456;28;20061;-74
2023/12/08 11:11:26;;;;;;;541.28;509.25;;;1.20;99.90;;;;;;4995627;28;20125;-74
2023/12/08 11:14:08;;;;;;;494.20;464.40;;;1.30;99.90;;;;;;5012093;28;20494;-74
2023/12/08 11:16:53;;;;;;;569.95;536.13;;;1.30;99.90;;;;;;5028001;28;20128;-74
2023/12/08 11:19:20;;;;;;;575.58;541.15;;;1.30;99.90;;;;;;4996255;28;20410;-74
2023/12/08 11:21:47;;;;;;;584.60;549.38;;;1.30;99.90;;;;;;5013912;28;20076;-74
2023/12/08 11:24:13;;;;;;;635.05;595.33;;;1.40;99.90;;;;;;5011420;28;20041;-74
2023/12/08 11:26:48;;;;;;;653.15;612.88;;;1.40;99.90;;;;;;4996453;28;20497;-75
2023/12/08 11:29:35;;;;;;;588.20;553.75;;;1.40;99.90;;;;;;5009266;28;20041;-74
2023/12/08 11:32:09;;;;;;;549.17;517.03;;;1.40;99.90;;;;;;4997369;28;20045;-74
2023/12/08 11:35:00;;;;;;;507.92;478.65;;;1.40;99.90;;;;;;4996917;28;20041;-74
2023/12/08 11:37:29;;;;;;;527.28;497.05;;;1.50;99.90;;;;;;5012769;28;20064;-74
2023/12/08 11:40:11;;;;;;;508.33;478.33;;;1.50;99.90;;;;;;5013888;28;20387;-74
2023/12/08 11:42:44;;;;;;;496.13;466.88;;;1.50;99.90;;;;;;5016736;28;20080;-74
2023/12/08 11:45:11;;;;;;;526.53;495.33;;;1.50;99.90;;;;;;4991250;28;20034;-74
2023/12/08 11:47:37;;;;;;;554.97;520.58;;;1.50;99.90;;;;;;5010793;28;20049;-74
2023/12/08 11:50:05;;;;;;;519.78;487.88;;;1.60;99.90;;;;;;4996614;28;20034;-73
2023/12/08 11:52:32;;;;;;;548.35;514.00;;;1.60;99.90;;;;;;5012466;28;20045;-74
2023/12/08 11:55:24;;;;;;;537.15;504.38;;;1.60;99.90;;;;;;5011665;28;20487;-74
2023/12/08 11:57:58;;;;;;;612.05;574.05;;;1.60;99.90;;;;;;4988094;28;20096;-74
2023/12/08 12:00:25;;;;;;;623.35;585.75;;;1.60;99.90;;;;;;5013458;28;20088;-74
2023/12/08 12:02:54;;;;;;;610.58;572.97;;;1.60;99.90;;;;;;4997018;28;20516;-75
2023/12/08 12:05:21;;;;;;;515.15;481.58;;;1.70;99.90;;;;;;5013795;28;20486;-74
2023/12/08 12:07:51;;;;;;;534.15;502.40;;;1.70;99.90;;;;;;5012930;28;20046;-73
2023/12/08 12:10:25;;;;;;;508.45;476.70;;;1.70;99.90;;;;;;4995864;28;20045;-74
2023/12/08 12:12:56;;;;;;;568.33;531.45;;;1.70;99.90;;;;;;5013418;28;20052;-74